Startpagina
METAR-TAF:

METAR-TAF

Vliegvelden :

Sint Maarten, Nederlandse Antillen

Princess Juliana International Airport

breedte: 18-03N, lengte: 063-07W, hoogte: 4 m

Actueel weer

Dit bericht is 47 minuten geleden gemaakt, om 00:00 UTC
Wind 7 kt uit het oosten
Temperatuur 29°C
Vochtigheid 79%
Druk 1015 hPa
Zicht 10 km of meer
Weinig wolken op 1900 ft

METAR: TNCM 270000Z 08007KT 9999 FEW019 29/25 Q1015 A2998 NOSIG

Tijdstip: 20:47 (00:47 UTC)

Verwachting

Dit bericht is 1 uur en het 25 minuten geleden gemaakt, om 23:22 UTC
Verwachting geldig van 27 om 00 UTC tot 27 om 24 UTC
Wind 7 kt uit het oosten
Zicht: 10 km
Weinig wolken op 1800 ft
Verspreide wolken op 3500 ft
Van 27 om 0500 UTC
Wind 5 kt uit het oosten
Zicht: 10 km
Verspreide wolken op 1800 ft
buien in de omgeving
Van 27 om 1400 UTC
Wind 13 kt uit het zuidoosten
Zicht: 10 km
Weinig wolken op 2200 ft
Verspreide wolken op 3500 ft

TAF: TNCM 262322Z 2700/2724 09007KT P6SM FEW018 SCT035 FM270500 08005KT P6SM VCSH SCT018 FM271400 13013KT P6SM FEW022 SCT035

Waarnemingen en weersverwachtingen van meer dan 4000 vliegvelden (METAR en TAF).

De beschikbare stations zijn de gele en rode punten op de kaart.

Ga met uw muis naar het station om de naam te zien.

Klik dan om waarnemingen en weersverwachtingen te zien.

kaart wijzigen: klik op de groene knoppen met een zwart kruis om in te zoomen, op de groene knop met een streepje om uit te zoomen of op de groene pijlen voor aangrenzende kaarten.


METAR-TAF: